Time;durP1;ratioP1;P1;durP2;ratioP2;P2;SDS_P1;SDS_P2;PMS_P1;PMS_P2;Temp;Humidity;BMP_temperature;BMP_pressure;BME280_temperature;BME280_humidity;BME280_pressure;Samples;Min_cycle;Max_cycle;Signal;HPM_P1;HPM_P2
2021/11/17 02:28:17;;;;;;;12.45;3.05;;;6.10;99.90;;;;;;10357260;28;20123;-60
2021/11/17 02:33:57;;;;;;;7.80;3.30;;;6.20;99.90;;;;;;10353914;28;20088;-59
2021/11/17 02:39:21;;;;;;;9.40;3.13;;;6.10;99.90;;;;;;10330051;28;20073;-61
2021/11/17 02:44:33;;;;;;;11.15;3.42;;;6.10;99.90;;;;;;10352676;28;20050;-60
2021/11/17 02:49:41;;;;;;;9.73;3.03;;;6.10;99.90;;;;;;10350589;28;20058;-60
2021/11/17 02:55:00;;;;;;;12.15;3.83;;;6.10;99.90;;;;;;10351847;28;20061;-59
2021/11/17 03:00:23;;;;;;;11.75;4.30;;;6.10;99.90;;;;;;10357316;28;20056;-58
2021/11/17 03:05:44;;;;;;;8.57;2.88;;;6.10;99.90;;;;;;10349847;28;20077;-58
2021/11/17 03:11:05;;;;;;;8.23;3.10;;;6.10;99.90;;;;;;10354167;28;20164;-59
2021/11/17 03:16:45;;;;;;;6.80;3.50;;;6.10;99.90;;;;;;10347808;28;20127;-59
2021/11/17 03:22:03;;;;;;;9.07;3.25;;;6.10;99.90;;;;;;10355309;28;20057;-59
2021/11/17 03:27:29;;;;;;;10.32;3.25;;;6.10;99.90;;;;;;10352433;28;20104;-59
2021/11/17 03:32:38;;;;;;;7.63;2.38;;;6.10;99.90;;;;;;10335141;28;20184;-59
2021/11/17 03:37:43;;;;;;;11.43;2.80;;;6.20;99.90;;;;;;10360435;28;20072;-59
2021/11/17 03:43:26;;;;;;;6.53;3.15;;;6.20;99.90;;;;;;10392211;28;20057;-58
2021/11/17 03:48:44;;;;;;;7.05;2.70;;;6.20;99.90;;;;;;10371829;28;20037;-60
2021/11/17 03:54:14;;;;;;;6.85;2.30;;;6.20;99.90;;;;;;10388079;28;20111;-59
2021/11/17 03:59:29;;;;;;;6.90;2.75;;;6.10;99.90;;;;;;10396794;28;20087;-59
2021/11/17 04:04:59;;;;;;;7.10;2.03;;;6.20;99.90;;;;;;10408329;28;20052;-59
2021/11/17 04:10:12;;;;;;;7.38;2.22;;;6.10;99.90;;;;;;10399063;28;20103;-59
2021/11/17 04:15:45;;;;;;;6.90;3.13;;;6.10;99.90;;;;;;10395010;28;20102;-59
2021/11/17 04:21:16;;;;;;;6.78;2.22;;;6.10;99.90;;;;;;10386306;28;20060;-59
2021/11/17 04:27:00;;;;;;;5.43;2.20;;;6.10;99.90;;;;;;10392015;28;20046;-59
2021/11/17 04:32:20;;;;;;;6.72;2.00;;;6.10;99.90;;;;;;10385920;28;20112;-59
2021/11/17 04:37:43;;;;;;;6.47;2.00;;;6.10;99.90;;;;;;10362780;28;20119;-59
2021/11/17 04:42:51;;;;;;;5.00;1.88;;;6.10;99.90;;;;;;10355651;28;20050;-57
2021/11/17 04:47:59;;;;;;;2.90;0.95;;;6.10;99.90;;;;;;10353511;28;20061;-58
2021/11/17 04:53:14;;;;;;;4.68;1.23;;;6.00;99.90;;;;;;10346285;28;20062;-58
2021/11/17 04:58:44;;;;;;;3.92;1.17;;;6.10;99.90;;;;;;10349000;28;20053;-58
2021/11/17 05:03:52;;;;;;;4.05;0.80;;;6.10;99.90;;;;;;10352501;28;20054;-59
2021/11/17 05:09:11;;;;;;;;;;;6.00;99.90;;;;;;10346246;28;20077;-59
2021/11/17 05:14:22;;;;;;;4.20;1.77;;;6.00;99.90;;;;;;10346558;28;19969;-59
2021/11/17 05:19:42;;;;;;;5.93;1.05;;;6.00;99.90;;;;;;10351794;28;20054;-58
2021/11/17 05:24:47;;;;;;;4.45;1.33;;;5.90;99.90;;;;;;10339563;28;20081;-59
2021/11/17 05:29:49;;;;;;;4.55;1.70;;;5.90;99.90;;;;;;10347479;28;20496;-60
2021/11/17 05:34:56;;;;;;;2.45;0.80;;;5.90;99.90;;;;;;10344613;28;20081;-59
2021/11/17 05:40:15;;;;;;;1.83;0.95;;;5.90;99.90;;;;;;10344379;28;20135;-59
2021/11/17 05:45:30;;;;;;;7.10;1.15;;;5.90;99.90;;;;;;10325612;28;20077;-60
2021/11/17 05:50:59;;;;;;;5.78;0.85;;;5.90;99.90;;;;;;10348521;28;20050;-58
2021/11/17 05:56:13;;;;;;;3.00;0.90;;;5.80;99.90;;;;;;10346291;28;20061;-59
2021/11/17 06:01:29;;;;;;;2.63;0.85;;;5.90;99.90;;;;;;10348732;28;20077;-58
2021/11/17 06:06:36;;;;;;;2.78;0.95;;;5.80;99.90;;;;;;10366729;28;20140;-59
2021/11/17 06:11:43;;;;;;;3.38;0.90;;;5.90;99.90;;;;;;10351145;28;20058;-59
2021/11/17 06:16:50;;;;;;;5.47;1.05;;;5.80;99.90;;;;;;10352074;28;20666;-58
2021/11/17 06:21:53;;;;;;;6.88;1.23;;;5.80;99.90;;;;;;10353694;28;20054;-59
2021/11/17 06:26:56;;;;;;;2.85;0.80;;;5.90;99.90;;;;;;10353261;28;20054;-59
2021/11/17 06:31:59;;;;;;;3.30;0.80;;;5.90;99.90;;;;;;10356564;28;20049;-58
2021/11/17 06:37:05;;;;;;;3.03;1.30;;;5.90;99.90;;;;;;10353590;28;20828;-58
2021/11/17 06:42:10;;;;;;;2.15;0.95;;;5.90;99.90;;;;;;10358933;28;20137;-63
2021/11/17 06:47:13;;;;;;;2.60;0.80;;;5.90;99.90;;;;;;10349315;28;20057;-65
2021/11/17 06:52:15;;;;;;;2.30;0.80;;;5.90;99.90;;;;;;10345885;28;20690;-64
2021/11/17 06:57:18;;;;;;;2.47;0.82;;;5.90;99.90;;;;;;10357454;28;20119;-64
2021/11/17 07:02:20;;;;;;;2.17;0.65;;;5.90;99.90;;;;;;10350992;28;20056;-64
2021/11/17 07:07:22;;;;;;;1.70;0.50;;;5.90;99.90;;;;;;10352542;28;20513;-64
2021/11/17 07:12:24;;;;;;;2.35;0.88;;;5.90;99.90;;;;;;10354165;28;20054;-64
2021/11/17 07:17:25;;;;;;;2.47;0.60;;;5.90;99.90;;;;;;10355020;28;20124;-64
2021/11/17 07:22:27;;;;;;;3.00;1.13;;;5.90;99.90;;;;;;10347333;28;20053;-64
2021/11/17 07:27:29;;;;;;;2.25;0.77;;;5.90;99.90;;;;;;10354845;28;20054;-64
2021/11/17 07:32:32;;;;;;;2.95;0.80;;;5.80;99.90;;;;;;10335010;28;20053;-64
2021/11/17 07:37:35;;;;;;;2.53;0.85;;;5.80;99.90;;;;;;10348269;28;20119;-64
2021/11/17 07:42:37;;;;;;;3.70;0.93;;;5.90;99.90;;;;;;10355749;28;20131;-64
2021/11/17 07:47:39;;;;;;;3.75;1.10;;;6.00;99.90;;;;;;10362906;28;20076;-65
2021/11/17 07:52:41;;;;;;;2.38;0.85;;;6.00;99.90;;;;;;10357496;28;20096;-64
2021/11/17 07:57:46;;;;;;;3.92;1.10;;;6.00;99.90;;;;;;10350663;28;20108;-64
2021/11/17 08:02:48;;;;;;;2.92;0.60;;;6.00;99.90;;;;;;10350376;28;20065;-64
2021/11/17 08:07:51;;;;;;;4.20;0.52;;;6.10;99.90;;;;;;10337579;28;20060;-65
2021/11/17 08:12:53;;;;;;;1.98;0.50;;;6.10;99.90;;;;;;10358029;28;20112;-64
2021/11/17 08:17:55;;;;;;;1.33;0.40;;;6.00;99.90;;;;;;10352980;28;20111;-64
2021/11/17 08:22:58;;;;;;;1.80;0.30;;;6.10;99.90;;;;;;10354349;28;20050;-64
2021/11/17 08:28:00;;;;;;;0.75;0.30;;;6.10;99.90;;;;;;10351913;28;20562;-64
2021/11/17 08:33:02;;;;;;;0.63;0.20;;;6.20;99.90;;;;;;10353908;28;21005;-64
2021/11/17 08:38:10;;;;;;;1.85;0.32;;;6.30;99.90;;;;;;10355505;28;20616;-64
2021/11/17 08:43:13;;;;;;;0.95;0.20;;;6.40;99.90;;;;;;10358637;28;20084;-64
2021/11/17 08:48:18;;;;;;;1.52;0.85;;;6.50;99.90;;;;;;10352373;28;20123;-64
2021/11/17 08:53:20;;;;;;;1.08;0.22;;;6.60;99.90;;;;;;10348789;28;20610;-63
2021/11/17 08:58:22;;;;;;;1.70;0.40;;;6.60;99.90;;;;;;10355624;28;20108;-63
2021/11/17 09:03:24;;;;;;;1.25;0.40;;;6.90;99.90;;;;;;10346894;28;20078;-63
2021/11/17 09:08:26;;;;;;;3.28;0.40;;;7.10;99.90;;;;;;10346469;28;20120;-65
2021/11/17 09:13:28;;;;;;;0.68;0.32;;;7.20;99.90;;;;;;10350671;28;20570;-64
2021/11/17 09:18:33;;;;;;;2.15;0.30;;;7.10;99.90;;;;;;10349275;28;20049;-63
2021/11/17 09:23:35;;;;;;;0.57;0.20;;;7.00;99.90;;;;;;10347086;28;20115;-64
2021/11/17 09:28:37;;;;;;;1.95;0.35;;;6.90;99.90;;;;;;10346281;28;20101;-65
2021/11/17 09:33:39;;;;;;;1.15;0.30;;;6.90;99.90;;;;;;10351590;28;20050;-64
2021/11/17 09:38:42;;;;;;;2.15;0.50;;;6.80;99.90;;;;;;10357164;28;20058;-63
2021/11/17 09:43:51;;;;;;;1.52;0.57;;;6.90;99.90;;;;;;10355878;28;20057;-64
2021/11/17 09:48:57;;;;;;;1.23;0.47;;;6.90;99.90;;;;;;10362589;28;20062;-64
2021/11/17 09:54:23;;;;;;;2.13;1.00;;;6.80;99.90;;;;;;10358417;28;20463;-64
2021/11/17 09:59:45;;;;;;;1.30;0.60;;;6.80;99.90;;;;;;10363529;28;20054;-64
2021/11/17 10:05:05;;;;;;;2.30;1.00;;;6.90;99.90;;;;;;10357697;28;20066;-63
2021/11/17 10:11:07;;;;;;;2.47;0.70;;;6.80;99.90;;;;;;10358962;28;20058;-63
2021/11/17 10:15:55;;;;;;;2.38;1.05;;;6.90;99.90;;;;;;10356928;28;20046;-63
2021/11/17 10:21:04;;;;;;;2.35;0.63;;;7.00;99.90;;;;;;10359753;28;20065;-63
2021/11/17 10:26:07;;;;;;;5.25;0.75;;;7.10;99.90;;;;;;10353274;28;20057;-63
2021/11/17 10:31:22;;;;;;;0.98;0.40;;;7.30;99.90;;;;;;10360710;28;20054;-64
2021/11/17 10:36:30;;;;;;;1.13;0.50;;;7.30;99.90;;;;;;10350241;28;20064;-64
2021/11/17 10:41:33;;;;;;;1.35;0.82;;;7.40;99.90;;;;;;10350749;28;20604;-64
2021/11/17 10:46:48;;;;;;;1.10;0.50;;;7.40;99.90;;;;;;10351295;28;20061;-65
2021/11/17 10:52:00;;;;;;;1.05;0.50;;;7.50;99.90;;;;;;10350710;28;20137;-63
2021/11/17 10:57:08;;;;;;;2.40;0.52;;;7.60;99.90;;;;;;10350421;28;20050;-62
2021/11/17 11:02:11;;;;;;;1.38;0.60;;;7.60;99.90;;;;;;10338452;28;20570;-62
2021/11/17 11:07:32;;;;;;;1.83;0.70;;;7.70;99.90;;;;;;10345125;28;20085;-62
2021/11/17 11:12:35;;;;;;;2.55;0.70;;;7.70;99.90;;;;;;10342702;28;20528;-62
2021/11/17 11:17:39;;;;;;;3.72;1.05;;;7.60;99.90;;;;;;10360566;28;20470;-62
2021/11/17 11:23:02;;;;;;;8.73;1.05;;;7.60;99.90;;;;;;10353167;28;20042;-62
2021/11/17 11:28:25;;;;;;;3.55;1.20;;;7.80;99.90;;;;;;10349585;28;20069;-63
2021/11/17 11:33:33;;;;;;;8.25;1.60;;;7.80;99.90;;;;;;10346110;28;20449;-62
2021/11/17 11:38:37;;;;;;;6.07;1.42;;;7.80;99.90;;;;;;10353954;28;20065;-62
2021/11/17 11:43:41;;;;;;;3.20;1.23;;;7.90;99.90;;;;;;10350215;28;20887;-63
2021/11/17 11:48:42;;;;;;;3.50;1.50;;;7.80;99.90;;;;;;10332596;28;20540;-63
2021/11/17 11:54:19;;;;;;;5.50;1.35;;;7.80;99.90;;;;;;10348044;28;20103;-63
2021/11/17 11:59:26;;;;;;;5.00;1.58;;;7.90;99.90;;;;;;10359603;28;20488;-63
2021/11/17 12:04:27;;;;;;;5.70;1.45;;;7.70;99.90;;;;;;10354956;28;20057;-63
2021/11/17 12:09:51;;;;;;;3.00;1.15;;;7.80;99.90;;;;;;10352209;28;20061;-63
2021/11/17 12:15:12;;;;;;;6.88;1.25;;;7.80;99.90;;;;;;10334018;28;20073;-63
2021/11/17 12:20:20;;;;;;;7.85;1.48;;;7.90;99.90;;;;;;10325895;28;20053;-63
2021/11/17 12:25:30;;;;;;;3.40;1.55;;;8.00;99.90;;;;;;10344402;28;20058;-63
2021/11/17 12:30:50;;;;;;;4.28;1.60;;;7.80;99.90;;;;;;10354897;28;20053;-64
2021/11/17 12:36:07;;;;;;;4.72;1.50;;;7.90;99.90;;;;;;10354905;28;20107;-63
2021/11/17 12:41:11;;;;;;;4.47;1.75;;;7.90;99.90;;;;;;10354282;28;20389;-63
2021/11/17 12:46:33;;;;;;;3.42;1.30;;;8.00;99.90;;;;;;10357479;28;20116;-62
2021/11/17 12:52:04;;;;;;;3.78;1.40;;;7.90;99.90;;;;;;10348079;28;20993;-62
2021/11/17 12:57:13;;;;;;;5.43;1.55;;;8.00;99.90;;;;;;10351270;28;20070;-62
2021/11/17 13:02:21;;;;;;;4.25;1.48;;;7.90;99.90;;;;;;10349020;28;20661;-63
2021/11/17 13:07:47;;;;;;;5.57;2.05;;;8.00;99.90;;;;;;10345557;28;20062;-62
2021/11/17 13:13:04;;;;;;;4.45;1.38;;;8.00;99.90;;;;;;10350648;28;20519;-63
2021/11/17 13:18:21;;;;;;;4.05;1.58;;;8.00;99.90;;;;;;10338123;28;20062;-63
2021/11/17 13:23:33;;;;;;;3.70;1.27;;;7.90;99.90;;;;;;10364032;28;20084;-63
2021/11/17 13:28:47;;;;;;;4.20;1.45;;;7.80;99.90;;;;;;10359806;28;20120;-64
2021/11/17 13:33:55;;;;;;;5.45;1.67;;;7.80;99.90;;;;;;10351199;28;20576;-61
2021/11/17 13:38:57;;;;;;;2.38;1.10;;;7.80;99.90;;;;;;10347462;28;20108;-62
2021/11/17 13:44:15;;;;;;;3.97;1.40;;;7.80;99.90;;;;;;10353120;28;20045;-62
2021/11/17 13:49:16;;;;;;;6.28;1.40;;;7.80;99.90;;;;;;10356797;28;20104;-63
2021/11/17 13:54:18;;;;;;;5.93;1.20;;;7.80;99.90;;;;;;10355160;28;20062;-64
2021/11/17 13:59:21;;;;;;;3.30;1.00;;;7.80;99.90;;;;;;10358907;28;20464;-64
2021/11/17 14:04:25;;;;;;;4.47;1.23;;;7.90;99.90;;;;;;10362227;28;20076;-64
2021/11/17 14:09:28;;;;;;;3.92;1.05;;;7.80;99.90;;;;;;10312309;28;20088;-65
2021/11/17 14:14:29;;;;;;;2.42;1.00;;;7.80;99.90;;;;;;10352328;28;20448;-64
2021/11/17 14:19:32;;;;;;;3.78;1.10;;;7.90;99.90;;;;;;10356733;28;20076;-64
2021/11/17 14:24:35;;;;;;;2.45;0.98;;;7.90;99.90;;;;;;10353650;28;20382;-63
2021/11/17 14:29:46;;;;;;;3.15;0.95;;;7.90;99.90;;;;;;10351081;28;20154;-64
2021/11/17 14:34:48;;;;;;;2.67;0.85;;;7.80;99.90;;;;;;10323086;28;1014686;-66
2021/11/17 14:39:50;;;;;;;3.70;1.20;;;7.70;99.90;;;;;;10356782;28;20050;-65
2021/11/17 14:44:53;;;;;;;2.15;1.02;;;7.60;99.90;;;;;;10351003;28;20107;-64
2021/11/17 14:49:54;;;;;;;3.42;1.85;;;7.60;99.90;;;;;;10352306;28;20056;-64
2021/11/17 14:54:56;;;;;;;2.28;1.02;;;7.60;99.90;;;;;;10351924;28;20061;-64
2021/11/17 14:59:58;;;;;;;4.38;1.10;;;7.80;99.90;;;;;;10352951;28;20085;-64
2021/11/17 15:05:00;;;;;;;3.35;0.95;;;7.80;99.90;;;;;;10359800;28;20077;-64
2021/11/17 15:10:05;;;;;;;2.30;0.80;;;7.70;99.90;;;;;;10359203;28;20058;-62
2021/11/17 15:15:15;;;;;;;2.40;1.00;;;7.70;99.90;;;;;;10340722;28;20463;-63
2021/11/17 15:20:17;;;;;;;3.22;0.90;;;7.70;99.90;;;;;;10356637;28;20056;-63
2021/11/17 15:25:23;;;;;;;2.22;0.88;;;7.70;99.90;;;;;;10350658;28;20475;-63
2021/11/17 15:30:39;;;;;;;6.38;0.85;;;7.60;99.90;;;;;;10353507;28;20057;-63
2021/11/17 15:35:41;;;;;;;2.60;0.88;;;7.60;99.90;;;;;;10347550;28;20053;-63
2021/11/17 15:40:47;;;;;;;2.80;1.42;;;7.60;99.90;;;;;;10348917;28;20116;-63
2021/11/17 15:45:51;;;;;;;2.63;1.03;;;7.50;99.90;;;;;;10349927;28;20169;-63
2021/11/17 15:51:00;;;;;;;2.80;0.75;;;7.50;99.90;;;;;;10352301;28;20041;-62
2021/11/17 15:56:03;;;;;;;2.58;1.00;;;7.50;99.90;;;;;;10347709;28;20054;-62
2021/11/17 16:01:06;;;;;;;4.55;1.17;;;7.50;99.90;;;;;;10349654;28;22538;-62
2021/11/17 16:06:08;;;;;;;5.68;1.10;;;7.60;99.90;;;;;;10350663;28;20066;-59
2021/11/17 16:11:10;;;;;;;4.05;1.30;;;7.50;99.90;;;;;;10352616;28;20127;-58
2021/11/17 16:16:11;;;;;;;6.35;1.48;;;7.60;99.90;;;;;;10350976;28;20053;-58
2021/11/17 16:21:13;;;;;;;7.75;1.25;;;7.50;99.90;;;;;;10353897;28;20061;-58
2021/11/17 16:26:20;;;;;;;5.38;1.55;;;7.60;99.90;;;;;;10348461;28;20174;-58
2021/11/17 16:31:25;;;;;;;8.63;1.42;;;7.60;99.90;;;;;;10346264;28;20116;-59
2021/11/17 16:36:27;;;;;;;6.43;1.83;;;7.60;99.90;;;;;;10351512;28;20115;-59
2021/11/17 16:41:29;;;;;;;2.97;1.25;;;7.60;99.90;;;;;;10347247;28;20515;-59
2021/11/17 16:46:31;;;;;;;4.90;1.90;;;7.60;99.90;;;;;;10348681;28;20058;-58
2021/11/17 16:52:41;;;;;;;5.22;1.90;;;7.60;99.90;;;;;;10353179;28;20066;-59
2021/11/17 16:57:47;;;;;;;4.22;1.48;;;7.60;99.90;;;;;;10296431;28;20053;-59
2021/11/17 17:02:49;;;;;;;6.60;2.20;;;7.60;99.90;;;;;;10347321;28;20570;-58
2021/11/17 17:07:51;;;;;;;6.55;2.50;;;7.60;99.90;;;;;;10353015;28;20061;-60
2021/11/17 17:12:53;;;;;;;7.30;2.80;;;7.60;99.90;;;;;;10345644;28;20117;-58
2021/11/17 17:17:55;;;;;;;8.45;3.42;;;7.60;99.90;;;;;;10337883;28;20733;-59
2021/11/17 17:22:58;;;;;;;5.85;3.13;;;7.60;99.90;;;;;;10344620;28;20056;-58
2021/11/17 17:28:00;;;;;;;7.45;2.58;;;7.50;99.90;;;;;;10360780;28;20759;-58
2021/11/17 17:33:02;;;;;;;11.13;4.60;;;7.50;99.90;;;;;;10350494;28;20115;-58
2021/11/17 17:38:05;;;;;;;9.10;4.35;;;7.50;99.90;;;;;;10354983;28;20745;-58
2021/11/17 17:43:07;;;;;;;10.15;5.13;;;7.40;99.90;;;;;;10348815;28;20496;-59
2021/11/17 17:48:09;;;;;;;13.52;5.72;;;7.30;99.90;;;;;;10352567;28;20184;-57
2021/11/17 17:53:15;;;;;;;12.88;6.28;;;7.30;99.90;;;;;;10351873;28;20084;-58
2021/11/17 17:58:18;;;;;;;11.10;4.50;;;7.20;99.90;;;;;;10351793;28;20104;-57
2021/11/17 18:03:23;;;;;;;10.65;4.85;;;7.20;99.90;;;;;;10361841;28;20045;-58
2021/11/17 18:08:25;;;;;;;9.25;4.25;;;7.20;99.90;;;;;;10353400;28;20053;-59
2021/11/17 18:13:28;;;;;;;12.13;4.32;;;7.20;99.90;;;;;;10351858;28;20081;-59
2021/11/17 18:18:31;;;;;;;9.80;4.50;;;7.20;99.90;;;;;;10357773;28;20128;-58
2021/11/17 18:23:33;;;;;;;10.02;4.97;;;7.20;99.90;;;;;;10353961;28;20088;-56
2021/11/17 18:28:36;;;;;;;10.32;4.55;;;7.30;99.90;;;;;;10352253;28;20113;-57
2021/11/17 18:33:39;;;;;;;9.30;4.80;;;7.30;99.90;;;;;;10341433;28;20068;-59
2021/11/17 18:38:41;;;;;;;10.32;4.57;;;7.30;99.90;;;;;;10349927;28;20049;-58
2021/11/17 18:43:42;;;;;;;6.95;3.40;;;7.30;99.90;;;;;;10355870;28;20054;-58
2021/11/17 18:48:44;;;;;;;8.20;4.07;;;7.30;99.90;;;;;;10357255;28;20107;-59
2021/11/17 18:53:46;;;;;;;9.63;4.38;;;7.30;99.90;;;;;;10357656;28;20072;-59
2021/11/17 18:58:54;;;;;;;12.20;4.40;;;7.40;99.90;;;;;;10356168;28;20056;-58
2021/11/17 19:03:59;;;;;;;10.75;4.25;;;7.40;99.90;;;;;;10355307;28;20613;-58
2021/11/17 19:09:03;;;;;;;11.77;3.67;;;7.40;99.90;;;;;;10354385;28;20090;-60
2021/11/17 19:14:05;;;;;;;13.75;4.90;;;7.40;99.90;;;;;;10352965;28;20505;-58
2021/11/17 19:19:14;;;;;;;12.60;5.13;;;7.40;99.90;;;;;;10354024;28;20049;-58
2021/11/17 19:24:18;;;;;;;13.95;4.43;;;7.40;99.90;;;;;;10355030;28;20112;-58
2021/11/17 19:29:21;;;;;;;16.88;5.30;;;7.40;99.90;;;;;;10352027;28;20100;-58
2021/11/17 19:34:23;;;;;;;10.88;5.45;;;7.40;99.90;;;;;;10356642;28;20116;-58
2021/11/17 19:39:25;;;;;;;14.40;5.50;;;7.40;99.90;;;;;;10350903;28;20061;-60
2021/11/17 19:44:27;;;;;;;12.88;6.43;;;7.40;99.90;;;;;;10354869;28;20106;-59
2021/11/17 19:49:29;;;;;;;16.85;5.18;;;7.50;99.90;;;;;;10353709;28;20054;-59
2021/11/17 19:54:31;;;;;;;11.98;5.53;;;7.40;99.90;;;;;;10347597;28;20050;-59
2021/11/17 19:59:37;;;;;;;14.77;5.97;;;7.40;99.90;;;;;;10344290;28;20062;-58
2021/11/17 20:04:41;;;;;;;12.13;5.20;;;7.40;99.90;;;;;;10352323;28;20104;-59
2021/11/17 20:09:43;;;;;;;12.10;5.82;;;7.50;99.90;;;;;;10347088;28;20057;-58
2021/11/17 20:14:45;;;;;;;13.88;6.20;;;7.50;99.90;;;;;;10346472;28;20112;-59
2021/11/17 20:19:47;;;;;;;13.68;6.05;;;7.40;99.90;;;;;;10354284;28;20120;-58
2021/11/17 20:24:49;;;;;;;12.52;6.00;;;7.40;99.90;;;;;;10345204;28;20123;-58
2021/11/17 20:29:51;;;;;;;12.70;4.68;;;7.30;99.90;;;;;;10345602;28;20077;-60
2021/11/17 20:34:55;;;;;;;13.95;5.90;;;7.40;99.90;;;;;;10355834;28;20192;-58
2021/11/17 20:39:57;;;;;;;12.52;6.25;;;7.30;99.90;;;;;;10389031;28;20124;-58
2021/11/17 20:44:58;;;;;;;15.65;5.95;;;7.30;99.90;;;;;;10386155;28;20046;-59
2021/11/17 20:50:00;;;;;;;14.32;6.32;;;7.20;99.90;;;;;;10395031;28;20459;-59
2021/11/17 20:55:05;;;;;;;12.40;5.85;;;7.20;99.90;;;;;;10371623;28;20053;-59
2021/11/17 21:00:11;;;;;;;14.95;5.75;;;7.30;99.90;;;;;;10383606;28;21125;-59
2021/11/17 21:05:15;;;;;;;14.52;5.25;;;7.20;99.90;;;;;;10391987;28;20057;-58
2021/11/17 21:10:17;;;;;;;15.63;5.68;;;7.20;99.90;;;;;;10384270;28;20104;-59
2021/11/17 21:15:21;;;;;;;13.30;5.68;;;7.20;99.90;;;;;;10355177;28;20524;-59
2021/11/17 21:20:23;;;;;;;13.38;5.82;;;7.10;99.90;;;;;;10388775;28;20104;-59
2021/11/17 21:25:26;;;;;;;16.02;6.38;;;7.10;99.90;;;;;;10387201;28;20412;-58
2021/11/17 21:30:28;;;;;;;18.80;6.03;;;7.10;99.90;;;;;;10388307;28;20049;-59
2021/11/17 21:35:33;;;;;;;17.45;6.30;;;7.00;99.90;;;;;;10384052;28;20474;-59
2021/11/17 21:40:36;;;;;;;15.70;6.88;;;6.90;99.90;;;;;;10362149;28;20132;-59
2021/11/17 21:45:38;;;;;;;17.00;6.80;;;6.90;99.90;;;;;;10338859;28;20496;-59
2021/11/17 21:50:40;;;;;;;12.57;5.43;;;6.90;99.90;;;;;;10351508;28;20501;-59
2021/11/17 21:55:43;;;;;;;17.98;6.28;;;6.90;99.90;;;;;;10362008;28;20131;-59
2021/11/17 22:01:07;;;;;;;16.05;6.07;;;6.90;99.90;;;;;;10357339;28;20192;-59
2021/11/17 22:06:14;;;;;;;14.25;5.60;;;6.90;99.90;;;;;;10360523;28;20065;-59
2021/11/17 22:11:24;;;;;;;15.32;5.97;;;6.80;99.90;;;;;;10359563;28;20128;-58
2021/11/17 22:16:26;;;;;;;15.10;6.68;;;6.70;99.90;;;;;;10340202;28;20082;-58
2021/11/17 22:21:29;;;;;;;15.43;5.93;;;6.70;99.90;;;;;;10335462;28;20134;-59
2021/11/17 22:26:32;;;;;;;16.90;7.00;;;6.60;99.90;;;;;;10365672;28;20045;-58
2021/11/17 22:31:35;;;;;;;20.33;6.85;;;6.50;99.90;;;;;;10362080;28;20045;-59
2021/11/17 22:36:37;;;;;;;16.95;6.93;;;6.40;99.90;;;;;;10354068;28;20050;-58
2021/11/17 22:41:40;;;;;;;14.82;6.90;;;6.40;99.90;;;;;;10355442;28;20060;-59
2021/11/17 22:46:42;;;;;;;19.27;7.30;;;6.40;99.90;;;;;;10357140;28;20078;-58
2021/11/17 22:51:44;;;;;;;18.15;7.93;;;6.30;99.90;;;;;;10335402;28;20051;-58
2021/11/17 22:56:46;;;;;;;13.88;5.72;;;6.20;99.90;;;;;;10354140;28;20055;-58
2021/11/17 23:01:47;;;;;;;16.20;6.22;;;6.20;99.90;;;;;;10354241;28;20167;-59
2021/11/17 23:06:50;;;;;;;30.10;7.43;;;6.20;99.90;;;;;;10331763;28;20479;-59
2021/11/17 23:11:52;;;;;;;22.80;7.47;;;6.30;99.90;;;;;;10353071;28;20496;-60
2021/11/17 23:16:55;;;;;;;26.00;8.07;;;6.40;99.90;;;;;;10357994;28;20053;-58
2021/11/17 23:21:58;;;;;;;17.98;6.45;;;6.40;99.90;;;;;;10353201;28;20057;-59
2021/11/17 23:27:00;;;;;;;19.17;6.65;;;6.40;99.90;;;;;;10341075;28;20108;-59
2021/11/17 23:32:02;;;;;;;14.77;5.93;;;6.40;99.90;;;;;;10358580;28;20115;-59
2021/11/17 23:37:05;;;;;;;18.75;6.90;;;6.30;99.90;;;;;;10350696;28;20096;-59
2021/11/17 23:42:07;;;;;;;35.63;9.52;;;6.30;99.90;;;;;;10354878;28;20381;-58
2021/11/17 23:47:09;;;;;;;22.55;6.30;;;6.20;99.90;;;;;;10350959;28;20062;-60
2021/11/17 23:52:11;;;;;;;14.57;6.35;;;6.20;99.90;;;;;;10362296;28;21656;-59
2021/11/17 23:57:12;;;;;;;18.92;6.43;;;6.10;99.90;;;;;;10349430;28;20090;-58
